Time;durP1;ratioP1;P1;durP2;ratioP2;P2;SDS_P1;SDS_P2;PMS_P1;PMS_P2;Temp;Humidity;BMP_temperature;BMP_pressure;BME280_temperature;BME280_humidity;BME280_pressure;Samples;Min_cycle;Max_cycle;Signal;HPM_P1;HPM_P2
2022/08/24 00:01:06;;;;;;;11.60;10.23;;;;;;;18.04;94.71;100921.91;4941897;28;20039;-74
2022/08/24 00:03:32;;;;;;;12.43;11.20;;;;;;;17.95;95.69;100915.94;4963329;28;20125;-74
2022/08/24 00:05:58;;;;;;;12.10;10.82;;;;;;;17.85;96.40;100911.78;4956022;28;20035;-74
2022/08/24 00:08:24;;;;;;;11.65;10.55;;;;;;;17.83;96.98;100924.31;4961312;28;20046;-74
2022/08/24 00:10:50;;;;;;;12.80;9.77;;;;;;;17.82;96.98;100921.72;4961500;28;20035;-74
2022/08/24 00:13:15;;;;;;;10.05;9.15;;;;;;;17.77;96.53;100929.81;4964274;28;20081;-74
2022/08/24 00:15:41;;;;;;;10.68;9.25;;;;;;;17.73;96.70;100926.34;4961904;28;20039;-73
2022/08/24 00:18:07;;;;;;;14.23;12.73;;;;;;;17.68;97.38;100925.63;4963286;28;20054;-74
2022/08/24 00:20:33;;;;;;;12.77;11.55;;;;;;;17.67;97.24;100931.00;4945818;28;20383;-74
2022/08/24 00:22:59;;;;;;;13.18;11.88;;;;;;;17.65;96.53;100935.50;4958579;28;20039;-74
2022/08/24 00:25:24;;;;;;;12.20;10.82;;;;;;;17.63;97.43;100935.56;4964443;28;20082;-74
2022/08/24 00:27:49;;;;;;;11.10;9.98;;;;;;;17.53;98.17;100934.06;4961102;28;20410;-74
2022/08/24 00:30:17;;;;;;;11.82;10.63;;;;;;;17.47;99.07;100942.22;4964040;28;20053;-74
2022/08/24 00:32:45;;;;;;;10.65;9.55;;;;;;;17.45;99.80;100939.63;4962164;28;20039;-74
2022/08/24 00:35:12;;;;;;;12.75;11.65;;;;;;;17.48;99.71;100939.53;4945015;28;20118;-74
2022/08/24 00:37:38;;;;;;;12.52;10.93;;;;;;;17.48;100.00;100939.53;4960652;28;20481;-75
2022/08/24 00:40:10;;;;;;;12.38;11.15;;;;;;;17.50;100.00;100937.69;4961049;28;20035;-75
2022/08/24 00:42:38;;;;;;;11.70;10.65;;;;;;;17.52;100.00;100933.16;4962678;28;20034;-74
2022/08/24 00:45:08;;;;;;;13.88;10.43;;;;;;;17.57;100.00;100927.72;4930657;28;20046;-74
2022/08/24 00:47:45;;;;;;;13.35;11.00;;;;;;;17.59;100.00;100927.69;4961241;28;20039;-74
2022/08/24 00:50:16;;;;;;;11.20;9.85;;;;;;;17.57;99.88;100932.19;4930650;28;20126;-74
2022/08/24 00:52:47;;;;;;;10.70;9.48;;;;;;;17.51;99.75;100928.78;4943440;29;20039;-74
2022/08/24 00:55:20;;;;;;;10.50;9.40;;;;;;;17.48;99.31;100931.53;4942348;28;20043;-74
2022/08/24 00:57:51;;;;;;;11.15;10.10;;;;;;;17.41;98.31;100937.94;4943598;28;20031;-74
2022/08/24 01:00:27;;;;;;;10.80;9.48;;;;;;;17.39;98.95;100930.91;4958194;28;20031;-74
2022/08/24 01:03:03;;;;;;;11.57;10.48;;;;;;;17.36;99.29;100929.19;4965803;28;20077;-74
2022/08/24 01:05:33;;;;;;;10.13;9.23;;;;;;;17.33;99.22;100928.41;4967974;28;20042;-74
2022/08/24 01:08:00;;;;;;;10.45;9.40;;;;;;;17.31;99.85;100936.44;4965749;28;20053;-73
2022/08/24 01:10:28;;;;;;;10.63;9.50;;;;;;;17.30;99.35;100932.91;4947737;28;20035;-74
2022/08/24 01:13:00;;;;;;;11.93;9.65;;;;;;;17.29;99.41;100922.28;4947061;28;20027;-74
2022/08/24 01:15:27;;;;;;;11.02;9.93;;;;;;;17.27;99.40;100924.13;4967191;28;20049;-74
2022/08/24 01:20:36;;;;;;;12.35;11.10;;;;;;;17.28;99.07;100925.88;4961924;28;20509;-74
2022/08/24 01:23:35;;;;;;;11.38;10.27;;;;;;;17.23;98.43;100922.44;4944895;28;20062;-74
2022/08/24 01:26:01;;;;;;;10.88;9.88;;;;;;;17.18;98.18;100916.38;4960376;28;20031;-73
2022/08/24 01:28:26;;;;;;;9.98;9.00;;;;;;;17.14;98.64;100912.06;4965542;28;20401;-74
2022/08/24 01:30:52;;;;;;;10.27;9.13;;;;;;;17.13;99.06;100920.94;4950088;28;20038;-74
2022/08/24 01:33:24;;;;;;;10.52;9.52;;;;;;;17.12;98.33;100908.53;4962142;28;20043;-74
2022/08/24 01:36:18;;;;;;;11.60;10.30;;;;;;;17.05;98.52;100918.47;4936192;28;20039;-74
2022/08/24 01:38:46;;;;;;;11.95;10.13;;;;;;;16.85;98.87;100921.69;4946350;29;20043;-74
2022/08/24 01:41:12;;;;;;;9.40;8.45;;;;;;;16.78;100.00;100920.97;4967092;28;20053;-74
2022/08/24 01:43:37;;;;;;;11.98;9.48;;;;;;;16.72;100.00;100921.09;4947269;28;20035;-74
2022/08/24 01:46:04;;;;;;;14.38;11.73;;;;;;;16.69;100.00;100915.84;4948613;28;20142;-74
2022/08/24 01:48:30;;;;;;;15.95;11.93;;;;;;;16.69;100.00;100920.28;4965681;28;20510;-74
2022/08/24 01:50:55;;;;;;;11.48;10.25;;;;;;;16.65;100.00;100915.03;4964833;28;20031;-73
2022/08/24 01:53:21;;;;;;;12.13;10.73;;;;;;;16.67;100.00;100919.47;4925264;29;20035;-74
2022/08/24 01:55:47;;;;;;;11.88;10.63;;;;;;;16.67;100.00;100919.47;4929845;28;20035;-74
2022/08/24 01:58:13;;;;;;;9.65;8.65;;;;;;;16.67;100.00;100922.13;4962601;28;20664;-75
2022/08/24 02:00:40;;;;;;;11.40;10.18;;;;;;;16.65;100.00;100920.34;4947620;28;20542;-74
2022/08/24 02:03:06;;;;;;;16.55;12.48;;;;;;;16.65;100.00;100914.16;4947328;28;20062;-74
2022/08/24 02:05:32;;;;;;;9.13;8.07;;;;;;;16.65;100.00;100920.34;4934953;29;20101;-74
2022/08/24 02:07:57;;;;;;;11.18;9.02;;;;;;;16.62;100.00;100919.56;4929756;29;20074;-74
2022/08/24 02:10:23;;;;;;;11.80;10.27;;;;;;;16.57;100.00;100921.47;4964873;28;20196;-74
2022/08/24 02:12:57;;;;;;;13.30;10.98;;;;;;;16.55;100.00;100916.16;4963614;28;20042;-74
2022/08/24 02:15:27;;;;;;;14.43;11.38;;;;;;;16.51;100.00;100922.50;4946899;28;20043;-73
2022/08/24 02:17:53;;;;;;;16.45;12.27;;;;;;;16.52;100.00;100921.59;4949319;28;20031;-74
2022/08/24 02:20:20;;;;;;;14.38;11.35;;;;;;;16.56;100.00;100927.72;4963838;28;20039;-74
2022/08/24 02:22:47;;;;;;;16.13;13.77;;;;;;;16.61;100.00;100928.47;4945306;28;20062;-74
2022/08/24 02:25:13;;;;;;;14.13;12.75;;;;;;;16.62;100.00;100931.09;4933198;28;20386;-74
2022/08/24 02:27:39;;;;;;;14.00;12.43;;;;;;;16.64;100.00;100928.41;4963732;28;20086;-74
2022/08/24 02:30:05;;;;;;;13.65;11.45;;;;;;;16.62;100.00;100930.22;4926947;28;20044;-74
2022/08/24 02:32:31;;;;;;;14.30;12.98;;;;;;;16.53;100.00;100928.69;4965939;28;20035;-74
2022/08/24 02:34:56;;;;;;;14.82;12.77;;;;;;;16.53;100.00;100926.00;4946746;28;20075;-74
2022/08/24 02:37:22;;;;;;;16.17;12.07;;;;;;;16.51;100.00;100935.81;4947776;28;20062;-74
2022/08/24 02:39:47;;;;;;;12.18;10.52;;;;;;;16.49;100.00;100931.44;4932810;28;20066;-74
2022/08/24 02:42:15;;;;;;;12.68;10.75;;;;;;;16.48;100.00;100932.34;4945746;29;20046;-74
2022/08/24 02:44:41;;;;;;;11.77;10.50;;;;;;;16.49;100.00;100924.31;4966114;28;20121;-74
2022/08/24 02:47:06;;;;;;;12.38;9.77;;;;;;;16.51;100.00;100932.28;4931057;28;20074;-74
2022/08/24 02:49:33;;;;;;;10.80;9.80;;;;;;;16.50;100.00;100927.84;4947004;28;20031;-74
2022/08/24 02:51:59;;;;;;;18.58;14.23;;;;;;;16.44;100.00;100920.91;4944023;29;20086;-74
2022/08/24 02:54:24;;;;;;;11.65;10.52;;;;;;;16.42;100.00;100918.25;4947794;28;20034;-74
2022/08/24 02:56:51;;;;;;;14.80;11.88;;;;;;;16.43;100.00;100924.47;4945709;29;20027;-74
2022/08/24 02:59:17;;;;;;;14.07;10.90;;;;;;;16.45;100.00;100922.63;4965880;28;20030;-74
2022/08/24 03:01:43;;;;;;;14.00;12.50;;;;;;;16.46;100.00;100923.53;4933445;28;20075;-74
2022/08/24 03:04:08;;;;;;;13.75;11.05;;;;;;;16.46;100.00;100920.88;4963998;28;20035;-74
2022/08/24 03:06:34;;;;;;;14.73;13.10;;;;;;;16.47;100.00;100930.59;4946842;28;20465;-74
2022/08/24 03:09:00;;;;;;;15.30;11.93;;;;;;;16.49;100.00;100929.66;4947518;28;20034;-74
2022/08/24 03:11:25;;;;;;;13.93;12.52;;;;;;;16.49;100.00;100929.66;4945166;29;20046;-74
2022/08/24 03:13:51;;;;;;;18.17;13.77;;;;;;;16.48;100.00;100938.56;4965671;28;20043;-74
2022/08/24 03:16:16;;;;;;;15.45;11.93;;;;;;;16.49;100.00;100940.31;4930441;28;20105;-74
2022/08/24 03:18:42;;;;;;;11.15;10.07;;;;;;;16.45;100.00;100933.28;4947399;28;20026;-74
2022/08/24 03:21:09;;;;;;;12.55;10.45;;;;;;;16.36;100.00;100937.06;4946414;28;20090;-74
2022/08/24 03:23:39;;;;;;;12.57;11.32;;;;;;;16.27;100.00;100944.38;4944477;29;20095;-74
2022/08/24 03:26:05;;;;;;;11.20;10.05;;;;;;;16.17;100.00;100949.94;4925923;28;20063;-74
2022/08/24 03:28:30;;;;;;;17.92;14.23;;;;;;;16.17;100.00;100946.41;4943836;28;20046;-74
2022/08/24 03:30:55;;;;;;;14.25;12.55;;;;;;;16.22;100.00;100947.16;4958911;28;20031;-74
2022/08/24 03:33:21;;;;;;;13.57;11.55;;;;;;;16.28;100.00;100948.81;4955629;28;20098;-74
2022/08/24 03:35:47;;;;;;;15.48;12.73;;;;;;;16.32;100.00;100950.47;4941888;28;20031;-74
2022/08/24 03:38:14;;;;;;;12.38;10.85;;;;;;;16.35;100.00;100945.09;4931886;29;20450;-74
2022/08/24 03:40:40;;;;;;;17.13;13.02;;;;;;;16.36;100.00;100947.72;4932441;28;20062;-73
2022/08/24 03:43:06;;;;;;;12.70;10.75;;;;;;;16.36;100.00;100949.50;4947010;28;20034;-74
2022/08/24 03:45:32;;;;;;;13.80;12.50;;;;;;;16.37;100.00;100951.25;4962917;28;20135;-74
2022/08/24 03:47:57;;;;;;;15.40;12.60;;;;;;;16.36;100.00;100945.03;4942666;28;20039;-74
2022/08/24 03:50:24;;;;;;;15.15;10.50;;;;;;;16.33;100.00;100955.78;4931090;29;20050;-74
2022/08/24 03:52:50;;;;;;;20.38;14.70;;;;;;;16.29;100.00;100961.22;4944237;29;20043;-72
2022/08/24 03:55:16;;;;;;;12.10;10.70;;;;;;;16.27;100.00;100969.25;4925761;28;20118;-74
2022/08/24 03:57:42;;;;;;;12.98;11.65;;;;;;;16.25;100.00;100979.06;4946993;28;20685;-74
2022/08/24 04:00:10;;;;;;;13.43;12.02;;;;;;;16.24;100.00;100981.75;4930665;28;20027;-73
2022/08/24 04:02:40;;;;;;;16.27;13.02;;;;;;;16.17;100.00;100989.88;4961733;28;20054;-73
2022/08/24 04:05:06;;;;;;;14.50;12.95;;;;;;;16.11;100.00;100981.13;4947451;28;20031;-74
2022/08/24 04:07:32;;;;;;;13.55;12.20;;;;;;;16.06;100.00;100989.25;4929602;28;20166;-74
2022/08/24 04:09:57;;;;;;;14.38;11.25;;;;;;;16.01;100.00;100988.47;4964073;28;20121;-73
2022/08/24 04:12:23;;;;;;;11.73;10.52;;;;;;;16.00;100.00;100979.56;4930265;28;20170;-74
2022/08/24 04:14:51;;;;;;;16.35;14.25;;;;;;;16.02;100.00;100982.22;4945411;28;20042;-74
2022/08/24 04:17:17;;;;;;;13.70;12.30;;;;;;;16.01;100.00;100991.13;4925262;29;20028;-73
2022/08/24 04:19:56;;;;;;;20.67;16.77;;;;;;;16.02;100.00;100990.19;4927344;28;20430;-73
2022/08/24 04:22:24;;;;;;;17.77;14.40;;;;;;;16.08;100.00;100992.72;4938783;28;20035;-74
2022/08/24 04:24:50;;;;;;;13.82;12.32;;;;;;;16.16;100.00;100995.22;4926237;29;20497;-73
2022/08/24 04:27:16;;;;;;;10.85;9.85;;;;;;;16.13;100.00;100990.84;4936990;29;20448;-74
2022/08/24 04:29:42;;;;;;;16.27;14.57;;;;;;;16.08;100.00;100990.06;4930017;28;20035;-74
2022/08/24 04:32:07;;;;;;;26.23;15.73;;;;;;;16.09;100.00;100999.81;4937656;28;20035;-73
2022/08/24 04:34:32;;;;;;;11.43;10.10;;;;;;;16.16;100.00;100996.09;4939194;28;20155;-74
2022/08/24 04:36:58;;;;;;;16.77;13.98;;;;;;;16.26;100.00;100999.44;4934192;28;20031;-74
2022/08/24 04:39:25;;;;;;;15.85;14.20;;;;;;;16.38;100.00;101001.84;4913093;29;20035;-74
2022/08/24 04:42:09;;;;;;;15.40;11.70;;;;;;;16.49;100.00;101004.25;4934296;28;20030;-73
2022/08/24 04:44:37;;;;;;;14.43;12.90;;;;;;;16.59;100.00;101005.78;4929483;29;20038;-74
2022/08/24 04:47:04;;;;;;;12.52;11.18;;;;;;;16.72;100.00;101005.50;4957466;28;20405;-74
2022/08/24 04:49:31;;;;;;;15.05;12.18;;;;;;;16.79;100.00;101000.03;4944708;28;20070;-74
2022/08/24 04:51:57;;;;;;;15.45;11.52;;;;;;;16.92;100.00;101005.91;4930053;28;20043;-74
2022/08/24 04:54:23;;;;;;;13.90;11.88;;;;;;;17.06;100.00;101006.47;4942172;28;20444;-74
2022/08/24 04:57:01;;;;;;;15.25;13.60;;;;;;;17.24;100.00;101014.91;4928145;28;20027;-74
2022/08/24 04:59:26;;;;;;;14.35;12.98;;;;;;;17.42;100.00;101013.53;4943975;28;20405;-74
2022/08/24 05:01:52;;;;;;;16.77;14.93;;;;;;;17.57;100.00;101015.78;4934594;28;20039;-73
2022/08/24 05:04:17;;;;;;;13.73;12.32;;;;;;;17.67;100.00;101017.28;4963587;28;20489;-74
2022/08/24 05:06:43;;;;;;;16.42;12.95;;;;;;;17.71;100.00;101002.03;4943560;28;20441;-74
2022/08/24 05:09:09;;;;;;;17.50;13.45;;;;;;;17.77;100.00;101004.56;4946466;28;20401;-74
2022/08/24 05:11:39;;;;;;;16.15;13.13;;;;;;;17.82;100.00;101012.47;4925500;28;20099;-74
2022/08/24 05:14:06;;;;;;;14.60;13.15;;;;;;;17.79;100.00;101007.16;4941828;28;20031;-74
2022/08/24 05:16:33;;;;;;;14.35;12.38;;;;;;;17.78;100.00;101006.31;4927721;29;20035;-74
2022/08/24 05:18:59;;;;;;;15.25;13.65;;;;;;;17.80;100.00;101004.50;4946148;28;20037;-73
2022/08/24 05:21:27;;;;;;;14.13;12.38;;;;;;;17.84;100.00;101011.53;4929466;28;20094;-74
2022/08/24 05:23:54;;;;;;;14.50;13.10;;;;;;;17.89;100.00;101009.59;4937394;29;20034;-73
2022/08/24 05:26:25;;;;;;;16.92;13.00;;;;;;;17.94;100.00;101010.31;4930867;28;20038;-74
2022/08/24 05:28:56;;;;;;;17.60;13.67;;;;;;;17.97;100.00;101012.00;4943263;28;20502;-74
2022/08/24 05:31:26;;;;;;;14.63;12.85;;;;;;;18.02;100.00;101015.44;4945080;28;20031;-74
2022/08/24 05:33:52;;;;;;;16.77;12.57;;;;;;;18.10;100.00;101012.53;4915215;28;20046;-75
2022/08/24 05:36:24;;;;;;;23.35;15.32;;;;;;;18.09;100.00;101013.47;4943622;29;20031;-74
2022/08/24 05:38:51;;;;;;;14.15;12.82;;;;;;;18.17;100.00;101008.75;4925708;28;20043;-74
2022/08/24 05:41:18;;;;;;;15.65;14.00;;;;;;;18.21;100.00;101013.09;4943306;28;20092;-74
2022/08/24 05:43:45;;;;;;;16.85;12.45;;;;;;;18.32;100.00;101013.66;4929668;28;20513;-73
2022/08/24 05:46:12;;;;;;;16.75;13.70;;;;;;;18.39;100.00;101020.56;4943842;29;20118;-73
2022/08/24 05:48:37;;;;;;;14.52;12.77;;;;;;;18.44;100.00;101012.38;4934142;28;20047;-73
2022/08/24 05:51:07;;;;;;;16.02;13.57;;;;;;;18.55;100.00;101020.09;4962534;28;20417;-74
2022/08/24 05:53:37;;;;;;;15.02;13.52;;;;;;;18.63;100.00;101018.03;4945590;28;20030;-74
2022/08/24 05:56:06;;;;;;;14.60;12.80;;;;;;;18.72;100.00;101020.41;4927771;29;20043;-74
2022/08/24 05:58:34;;;;;;;14.48;13.10;;;;;;;18.79;100.00;101019.31;4928526;28;20110;-74
2022/08/24 06:01:16;;;;;;;15.05;13.35;;;;;;;18.87;100.00;101019.09;4949835;28;20482;-73
2022/08/24 06:03:42;;;;;;;15.65;12.68;;;;;;;18.93;100.00;101023.34;4936000;28;20040;-74
2022/08/24 06:06:12;;;;;;;14.75;12.55;;;;;;;19.00;100.00;101022.22;4948392;28;20070;-74
2022/08/24 06:08:40;;;;;;;13.48;11.82;;;;;;;19.13;100.00;101022.69;4942739;28;20030;-74
2022/08/24 06:11:06;;;;;;;14.18;12.48;;;;;;;19.26;100.00;101027.56;4927441;29;20032;-73
2022/08/24 06:13:32;;;;;;;16.02;12.05;;;;;;;19.33;99.20;101027.34;4964987;28;20045;-74
2022/08/24 06:16:10;;;;;;;14.10;12.05;;;;;;;19.37;98.19;101027.19;4946689;28;20031;-73
2022/08/24 06:18:37;;;;;;;13.30;12.10;;;;;;;19.45;97.99;101024.25;4946933;28;20402;-74
2022/08/24 06:21:08;;;;;;;14.45;12.98;;;;;;;19.52;97.55;101025.78;4928842;28;20370;-74
2022/08/24 06:23:34;;;;;;;14.93;11.20;;;;;;;19.61;97.56;101019.22;4961046;28;20051;-74
2022/08/24 06:28:46;;;;;;;12.88;11.57;;;;;;;19.76;96.63;101033.91;4929829;28;20027;-74
2022/08/24 06:31:12;;;;;;;14.00;12.35;;;;;;;19.90;95.61;101027.09;4941970;28;20089;-74
2022/08/24 06:33:37;;;;;;;12.30;11.07;;;;;;;20.02;95.38;101028.47;4948263;28;20401;-74
2022/08/24 06:36:03;;;;;;;13.75;10.02;;;;;;;20.13;94.58;101028.06;4945948;29;20035;-74
2022/08/24 06:38:29;;;;;;;14.35;11.82;;;;;;;20.15;93.62;101020.84;4926957;28;20028;-74
2022/08/24 06:40:55;;;;;;;18.50;13.30;;;;;;;20.22;93.95;101029.50;4932380;28;20500;-74
2022/08/24 06:43:20;;;;;;;14.70;11.45;;;;;;;20.36;93.93;101029.84;4946745;29;20044;-74
2022/08/24 06:45:50;;;;;;;12.50;10.75;;;;;;;20.46;92.64;101033.03;4934802;28;20066;-74
2022/08/24 06:48:19;;;;;;;13.27;11.65;;;;;;;20.45;91.51;101029.47;4945327;28;20122;-75
2022/08/24 06:50:46;;;;;;;15.30;11.50;;;;;;;20.44;91.40;101033.09;4948527;28;20030;-74
2022/08/24 06:53:13;;;;;;;17.48;11.05;;;;;;;20.57;91.58;101034.41;4929751;28;20505;-74
2022/08/24 06:55:52;;;;;;;14.23;11.38;;;;;;;20.66;90.91;101032.28;4946676;28;20034;-74
2022/08/24 06:58:18;;;;;;;14.73;11.00;;;;;;;20.77;90.74;101030.03;4944194;28;20032;-74
2022/08/24 07:00:45;;;;;;;11.93;10.80;;;;;;;20.90;89.94;101031.28;4937957;28;20438;-74
2022/08/24 07:03:11;;;;;;;12.63;11.05;;;;;;;20.94;89.18;101030.22;4943983;29;20391;-74
2022/08/24 07:05:50;;;;;;;12.50;10.43;;;;;;;20.95;88.63;101040.00;4927125;28;20039;-74
2022/08/24 07:08:23;;;;;;;14.00;10.82;;;;;;;21.03;88.95;101037.00;4946303;28;20408;-72
2022/08/24 07:10:49;;;;;;;15.57;11.32;;;;;;;21.09;88.34;101044.84;4964916;28;20035;-72
2022/08/24 07:13:15;;;;;;;12.93;11.15;;;;;;;21.23;87.71;101036.19;4944717;28;20098;-72
2022/08/24 07:15:41;;;;;;;11.93;10.70;;;;;;;21.38;87.63;101038.25;4941731;28;20028;-72
2022/08/24 07:18:13;;;;;;;16.08;14.35;;;;;;;21.53;86.38;101036.69;4947490;28;20478;-72
2022/08/24 07:20:41;;;;;;;11.23;10.10;;;;;;;21.57;85.69;101042.81;4947676;29;20516;-72
2022/08/24 07:23:20;;;;;;;11.90;10.50;;;;;;;21.64;84.76;101041.59;4930384;28;20165;-72
2022/08/24 07:25:47;;;;;;;11.88;10.68;;;;;;;21.70;84.41;101038.66;4946188;28;20177;-72
2022/08/24 07:28:13;;;;;;;12.23;10.25;;;;;;;21.81;83.84;101040.88;4932659;29;20051;-73
2022/08/24 07:30:40;;;;;;;13.27;11.82;;;;;;;21.85;83.31;101037.97;4932507;28;20046;-72
2022/08/24 07:33:07;;;;;;;11.63;10.00;;;;;;;22.01;83.22;101042.66;4944539;28;20157;-72
2022/08/24 07:35:33;;;;;;;14.23;10.70;;;;;;;21.99;81.68;101042.72;4944679;28;20074;-72
2022/08/24 07:37:59;;;;;;;11.30;10.07;;;;;;;22.07;81.90;101045.91;4939836;28;20054;-72
2022/08/24 07:40:27;;;;;;;12.75;10.50;;;;;;;22.20;80.42;101048.94;4933417;28;20165;-73
2022/08/24 07:42:54;;;;;;;11.55;10.18;;;;;;;22.20;79.73;101048.94;4940831;28;20048;-72
2022/08/24 07:45:21;;;;;;;13.68;11.60;;;;;;;22.33;79.79;101043.88;4944238;28;20047;-73
2022/08/24 07:47:50;;;;;;;21.65;14.68;;;;;;;22.54;78.90;101045.53;4940944;28;20038;-73
2022/08/24 07:50:26;;;;;;;12.95;11.27;;;;;;;22.78;78.12;101044.44;4947451;28;20034;-72
2022/08/24 07:52:51;;;;;;;12.40;10.40;;;;;;;22.94;76.92;101045.41;4944018;28;20509;-72
2022/08/24 07:55:17;;;;;;;11.05;10.05;;;;;;;23.07;75.41;101043.88;4946506;28;20038;-72
2022/08/24 07:57:44;;;;;;;13.15;11.13;;;;;;;23.21;74.95;101039.63;4930858;28;20114;-74
2022/08/24 08:00:11;;;;;;;14.48;11.13;;;;;;;23.34;74.18;101041.63;4945262;28;20030;-74
2022/08/24 08:02:44;;;;;;;16.52;14.93;;;;;;;23.61;73.57;101046.53;4964356;28;20420;-74
2022/08/24 08:05:09;;;;;;;15.27;14.07;;;;;;;23.92;71.92;101045.81;4930032;29;20035;-74
2022/08/24 08:07:41;;;;;;;17.75;16.08;;;;;;;24.18;70.70;101041.72;4931405;28;20023;-74
2022/08/24 08:10:08;;;;;;;14.10;12.73;;;;;;;24.31;69.03;101043.72;4943971;28;20057;-74
2022/08/24 08:12:35;;;;;;;14.10;11.60;;;;;;;24.38;68.16;101043.28;4913456;28;20087;-74
2022/08/24 08:15:01;;;;;;;12.93;11.82;;;;;;;24.57;67.70;101043.16;4946590;28;20050;-74
2022/08/24 08:17:26;;;;;;;14.02;12.75;;;;;;;24.67;65.04;101044.38;4946320;28;20027;-74
2022/08/24 08:19:52;;;;;;;11.63;10.50;;;;;;;24.80;64.36;101047.25;4945130;28;20038;-75
2022/08/24 08:25:40;;;;;;;;;;;;;;;24.59;62.59;101049.34;4964112;28;20462;-75
2022/08/24 08:28:14;;;;;;;12.60;11.60;;;;;;;24.52;62.99;101052.47;4933641;29;20381;-74
2022/08/24 08:30:40;;;;;;;12.57;10.75;;;;;;;24.35;62.61;101056.94;4945401;28;20030;-75
2022/08/24 08:33:07;;;;;;;13.55;12.45;;;;;;;24.31;63.78;101047.28;4960467;28;20638;-74
2022/08/24 08:35:33;;;;;;;11.95;10.75;;;;;;;24.22;63.93;101061.28;4928370;29;20035;-74
2022/08/24 08:38:00;;;;;;;12.43;11.32;;;;;;;24.01;64.84;101060.63;4953030;28;20036;-75
2022/08/24 08:40:44;;;;;;;13.75;12.48;;;;;;;24.01;64.23;101061.47;4945966;28;20378;-74
2022/08/24 08:43:27;;;;;;;11.77;10.77;;;;;;;24.02;64.03;101063.22;4925312;28;20040;-74
2022/08/24 08:46:15;;;;;;;11.68;10.45;;;;;;;23.81;63.90;101065.22;4943375;29;20506;-75
2022/08/24 08:49:36;;;;;;;12.35;11.30;;;;;;;23.83;64.21;101057.06;4947332;28;20078;-75
2022/08/24 08:52:27;;;;;;;12.18;11.00;;;;;;;23.89;63.93;101069.34;4926011;28;20031;-74
2022/08/24 08:55:15;;;;;;;14.35;12.85;;;;;;;23.89;64.00;101056.75;4944012;28;20125;-74
2022/08/24 08:58:10;;;;;;;13.60;12.35;;;;;;;23.96;63.16;101055.47;4959660;28;20026;-74
2022/08/24 09:00:54;;;;;;;13.57;11.60;;;;;;;24.09;63.59;101057.50;4928958;28;20402;-74
2022/08/24 09:03:29;;;;;;;13.05;11.77;;;;;;;24.08;63.45;101059.34;4944538;28;20405;-74
2022/08/24 09:06:41;;;;;;;14.68;12.77;;;;;;;24.01;62.81;101056.09;4956133;28;20047;-72
2022/08/24 09:09:27;;;;;;;19.85;18.33;;;;;;;23.93;63.31;101060.16;4944154;28;20043;-72
2022/08/24 09:12:01;;;;;;;12.35;11.27;;;;;;;23.95;62.84;101056.44;4942034;28;20035;-72
2022/08/24 09:14:58;;;;;;;12.90;11.85;;;;;;;23.98;62.08;101056.25;4939871;28;20066;-72
2022/08/24 09:17:43;;;;;;;13.00;11.70;;;;;;;23.99;61.93;101052.59;4928921;29;20028;-73
2022/08/24 09:20:25;;;;;;;13.82;12.63;;;;;;;24.18;61.67;101057.88;4930454;28;20055;-72
2022/08/24 09:23:07;;;;;;;12.25;10.98;;;;;;;24.27;61.06;101051.97;4959429;28;20121;-72
2022/08/24 09:25:58;;;;;;;13.23;11.82;;;;;;;24.57;60.47;101047.69;4961718;28;20038;-71
2022/08/24 09:28:40;;;;;;;11.98;10.73;;;;;;;24.95;59.91;101037.41;4933464;28;20035;-72
2022/08/24 09:31:30;;;;;;;12.98;11.77;;;;;;;25.43;58.31;101042.72;4957101;28;20038;-71
2022/08/24 09:34:14;;;;;;;16.88;15.27;;;;;;;25.93;58.99;101041.47;4954675;28;20039;-72
2022/08/24 09:37:02;;;;;;;12.52;11.40;;;;;;;26.28;55.49;101036.56;4957387;28;20038;-72
2022/08/24 09:40:10;;;;;;;12.73;11.00;;;;;;;26.56;53.95;101034.78;4959796;28;20050;-73
2022/08/24 09:43:05;;;;;;;13.25;12.05;;;;;;;26.55;53.80;101039.34;4949476;28;20568;-72
2022/08/24 09:46:05;;;;;;;13.07;11.77;;;;;;;26.57;52.95;101041.97;4963367;28;20053;-72
2022/08/24 09:49:11;;;;;;;12.30;11.13;;;;;;;26.36;51.91;101034.22;4966918;28;20449;-73
2022/08/24 09:52:03;;;;;;;13.75;12.45;;;;;;;26.15;53.40;101036.47;4929593;28;20046;-73
2022/08/24 09:54:59;;;;;;;13.27;10.80;;;;;;;25.82;54.37;101027.72;4965534;28;20409;-72
2022/08/24 09:57:49;;;;;;;15.75;14.48;;;;;;;25.64;54.32;101030.59;4966875;28;20053;-73
2022/08/24 10:00:24;;;;;;;11.50;10.55;;;;;;;25.56;54.48;101027.50;4967018;28;20035;-71
2022/08/24 10:03:26;;;;;;;12.68;11.55;;;;;;;25.71;54.57;101020.28;4964811;28;20098;-73
2022/08/24 10:06:01;;;;;;;18.10;16.48;;;;;;;26.09;54.68;101025.16;4964142;28;20043;-73
2022/08/24 10:08:44;;;;;;;14.30;13.10;;;;;;;26.47;53.44;101014.56;4959407;28;20070;-72
2022/08/24 10:11:29;;;;;;;14.88;13.68;;;;;;;26.83;52.12;101010.47;4964342;28;20038;-73
2022/08/24 10:14:05;;;;;;;16.88;15.18;;;;;;;27.07;50.20;101007.94;4959631;28;20094;-73
2022/08/24 10:16:57;;;;;;;19.15;17.35;;;;;;;27.20;50.36;100999.88;4964850;28;20070;-72
2022/08/24 10:19:52;;;;;;;16.35;14.43;;;;;;;27.62;49.76;100992.44;4964041;28;20039;-73
2022/08/24 10:22:46;;;;;;;16.90;15.40;;;;;;;27.76;50.12;100998.59;4964275;28;20424;-73
2022/08/24 10:25:27;;;;;;;17.88;16.33;;;;;;;27.40;49.47;101006.59;4954792;28;20399;-72
2022/08/24 10:28:32;;;;;;;13.50;12.10;;;;;;;26.91;51.25;101002.69;4921082;29;20074;-73
2022/08/24 10:31:09;;;;;;;16.90;15.32;;;;;;;27.02;51.74;101005.53;4959245;28;20054;-73
2022/08/24 10:34:09;;;;;;;15.05;13.15;;;;;;;27.17;49.56;100989.19;4959743;28;20055;-73
2022/08/24 10:36:47;;;;;;;13.93;12.60;;;;;;;27.43;49.69;100996.44;4941219;28;20034;-73
2022/08/24 10:39:42;;;;;;;14.77;13.50;;;;;;;27.58;50.28;100982.78;4965808;28;20039;-72
2022/08/24 10:45:31;;;;;;;17.33;15.40;;;;;;;28.11;48.11;100987.13;4931220;29;20043;-72
2022/08/24 10:48:08;;;;;;;19.15;17.60;;;;;;;28.31;47.46;100984.78;4954569;28;20046;-72
2022/08/24 10:50:57;;;;;;;16.83;15.07;;;;;;;28.10;47.34;100992.66;4963741;28;20113;-72
2022/08/24 10:53:29;;;;;;;14.88;13.52;;;;;;;28.19;48.27;100991.97;4941827;28;20126;-72
2022/08/24 10:56:04;;;;;;;19.10;17.40;;;;;;;28.41;47.93;100985.84;4964773;28;20068;-72
2022/08/24 10:58:42;;;;;;;17.38;15.65;;;;;;;28.65;47.95;100999.47;4965266;28;20126;-72
2022/08/24 11:01:16;;;;;;;18.13;16.33;;;;;;;28.83;46.99;100992.66;4929360;28;20123;-72
2022/08/24 11:03:49;;;;;;;15.90;14.60;;;;;;;28.77;46.83;100986.84;4962011;28;20043;-73
2022/08/24 11:06:17;;;;;;;19.27;17.30;;;;;;;28.94;47.21;100989.13;4928367;28;20047;-72
2022/08/24 11:09:05;;;;;;;13.82;12.57;;;;;;;28.68;45.96;100985.66;4963815;28;20050;-73
2022/08/24 11:11:37;;;;;;;13.68;12.27;;;;;;;28.60;46.85;100977.22;4956511;28;20118;-72
2022/08/24 11:14:21;;;;;;;16.10;13.00;;;;;;;28.54;47.54;100981.28;4960554;28;20035;-73
2022/08/24 11:16:46;;;;;;;19.10;13.93;;;;;;;28.57;47.38;100980.16;4960176;28;20053;-72
2022/08/24 11:19:28;;;;;;;13.80;12.45;;;;;;;28.75;47.30;100977.94;4963253;28;20118;-73
2022/08/24 11:21:55;;;;;;;16.60;15.20;;;;;;;29.03;47.06;100983.00;4957518;28;20035;-72
2022/08/24 11:24:37;;;;;;;22.58;19.98;;;;;;;29.21;46.57;100979.84;4942204;29;20483;-73
2022/08/24 11:27:15;;;;;;;16.27;14.82;;;;;;;29.26;44.56;100973.06;4962128;28;20464;-73
2022/08/24 11:29:49;;;;;;;18.27;14.75;;;;;;;29.40;45.16;100979.31;4958554;28;20035;-73
2022/08/24 11:32:46;;;;;;;15.23;13.98;;;;;;;29.68;44.85;100983.44;4945602;28;20039;-73
2022/08/24 11:35:19;;;;;;;13.82;12.63;;;;;;;29.54;44.04;100979.06;4964055;28;20039;-72
2022/08/24 11:37:46;;;;;;;15.55;14.02;;;;;;;29.32;44.17;100984.44;4959561;28;20130;-72
2022/08/24 11:40:12;;;;;;;19.88;18.48;;;;;;;28.80;45.49;100983.88;4963642;28;20058;-73